Historyczne dane pomiarowe

Dodano dane terminowe – wersja testowa.

Dane z okresu 1951-2019

Wersja bazy: 1.34 [2019-03-16, lista zmian], aktualizacja planowana na 2019-04-15

Dane meteo z obszaru Polski uzyskane na podstawie danych udostępnionych przez Instytut Meteorologii i Gospodarki Wodnej – Państwowy Instytut Badawczy.

 

Wybierz Datę:    

       

TemperaturaWilgotnośćZachmurzenieWiatrCiśnienieWidzialnośćZjawiska
 Data    tng td wb rh cc ccl cl cm ch dir g1 g2 mslp ppp      
1999-06-24 00:00:00 11.5--- 10.6 11.094wxwxwxwx4wx--1018.8 996.4 5.1---wxw1
1999-06-24 01:00:00 11.2--- 10.5 10.895wxwxwx4wx--1019.2 996.7----wxw1
1999-06-24 02:00:00 11.0--- 10.3 10.695wxwxwx3wx--1019.5 997.0----wx
1999-06-24 03:00:00 10.8--- 10.1 10.495wxwxwxwx3wx--1019.8 997.3----wxw1
1999-06-24 04:00:00 10.8--- 10.1 10.495wxwxwxwx3wx--1019.8 997.3----wxw1
1999-06-24 05:00:00 11.0--- 9.9 10.493wxwxwx4wx--1020.0 997.5----wxw1
1999-06-24 06:00:00 11.2--- 9.4 10.288wxwxwx4wx--1020.4 997.9 0.5---wxw1
1999-06-24 07:00:00 11.8--- 10.0 10.889wxwxwx4wx--1020.9 998.4----wx
1999-06-24 08:00:00 11.8--- 10.0 10.889wxwxwx3wx--1021.3 998.8----wx
1999-06-24 09:00:00 11.8--- 10.4 11.091wxwxwx3wx--1021.5 999.0----wx
1999-06-24 10:00:00 11.8--- 10.4 11.091wxwxwx3wx--1021.6 999.1----wx
1999-06-24 11:00:00 12.8--- 11.4 12.091wxwxwx3wx--1021.7 999.3----wx
1999-06-24 12:00:00 12.0--- 10.6 11.291wxwxwx3wx--1021.8 999.3 1.6---wxw1
1999-06-24 13:00:00 12.6--- 11.5 12.093wxwxwxwx3wx--1021.7 999.3----wxw1
1999-06-24 14:00:00 12.2--- 10.8 11.491wxwxwxwx3wx--1021.8 999.3----wxw1
1999-06-24 15:00:00 12.4--- 11.0 11.691wxwxwxwx3wx--1021.9 999.5----wxw1
1999-06-24 16:00:00 12.2--- 10.8 11.491wxwxwxwx3wx--1021.2 998.8----wxw1
1999-06-24 17:00:00 12.0--- 10.6 11.291wxwxwxwx2wx--1021.1 998.6----wxw1
1999-06-24 18:00:00 11.8--- 11.1 11.495wxwxwxwx2wx--1020.9 998.4 1.7---wxw1
1999-06-24 19:00:00 11.8--- 11.1 11.495wxwxwxwx3wx--1021.5 999.0----wx
1999-06-24 20:00:00 11.4--- 10.7 11.095wxwxwxwx2wx--1021.6 999.1----wxw1
1999-06-24 21:00:00 11.0--- 10.3 10.695wxwxwxwx2wx--1021.6 999.1----wxw1
1999-06-24 22:00:00 10.6--- 9.5 10.093wxwxwx2wx--1021.3 998.7----wxw1
1999-06-24 23:00:00 10.4--- 9.3 9.893wxwxwx2wx--1021.3 998.7----wx

 

Źródłem pochodzenia danych jest Instytut Meteorologii i Gospodarki Wodnej – Państwowy Instytut Badawczy. Dane Instytutu Meteorologii i Gospodarki Wodnej – Państwowego Instytutu Badawczego zostały przetworzone.

Dane źródłowe można odnaleźć na stronie https://dane.imgw.pl